sensor_id;sensor_type;location;lat;lon;timestamp;P1;durP1;ratioP1;P2;durP2;ratioP2
42670;SDS011;28283;55.426;37.756;2023-12-20T00:04:01;0.82;;;0.80;;
42670;SDS011;28283;55.426;37.756;2023-12-20T00:09:02;1.20;;;1.10;;
42670;SDS011;28283;55.426;37.756;2023-12-20T00:14:03;0.60;;;0.60;;
42670;SDS011;28283;55.426;37.756;2023-12-20T00:19:03;0.70;;;0.70;;
42670;SDS011;28283;55.426;37.756;2023-12-20T00:24:04;1.02;;;0.85;;
42670;SDS011;28283;55.426;37.756;2023-12-20T00:29:05;1.02;;;0.80;;
42670;SDS011;28283;55.426;37.756;2023-12-20T00:34:05;2.13;;;1.00;;
42670;SDS011;28283;55.426;37.756;2023-12-20T00:39:06;0.40;;;0.40;;
42670;SDS011;28283;55.426;37.756;2023-12-20T00:44:07;2.07;;;0.40;;
42670;SDS011;28283;55.426;37.756;2023-12-20T00:49:07;0.60;;;0.50;;
42670;SDS011;28283;55.426;37.756;2023-12-20T00:54:08;0.90;;;0.50;;
42670;SDS011;28283;55.426;37.756;2023-12-20T00:59:09;0.70;;;0.30;;
42670;SDS011;28283;55.426;37.756;2023-12-20T01:04:10;0.40;;;0.32;;
42670;SDS011;28283;55.426;37.756;2023-12-20T01:09:11;2.25;;;0.50;;
42670;SDS011;28283;55.426;37.756;2023-12-20T01:14:12;0.20;;;0.20;;
42670;SDS011;28283;55.426;37.756;2023-12-20T01:19:12;0.20;;;0.20;;
42670;SDS011;28283;55.426;37.756;2023-12-20T01:24:13;0.73;;;0.20;;
42670;SDS011;28283;55.426;37.756;2023-12-20T01:29:14;4.23;;;0.30;;
42670;SDS011;28283;55.426;37.756;2023-12-20T01:34:16;0.20;;;0.00;;
42670;SDS011;28283;55.426;37.756;2023-12-20T01:39:16;0.30;;;0.20;;
42670;SDS011;28283;55.426;37.756;2023-12-20T01:44:17;0.20;;;0.15;;
42670;SDS011;28283;55.426;37.756;2023-12-20T01:49:18;0.20;;;0.20;;
42670;SDS011;28283;55.426;37.756;2023-12-20T01:54:18;0.10;;;0.10;;
42670;SDS011;28283;55.426;37.756;2023-12-20T01:59:20;1.77;;;0.20;;
42670;SDS011;28283;55.426;37.756;2023-12-20T02:09:22;2.45;;;0.30;;
42670;SDS011;28283;55.426;37.756;2023-12-20T02:14:23;1.27;;;0.40;;
42670;SDS011;28283;55.426;37.756;2023-12-20T02:19:24;1.27;;;1.17;;
42670;SDS011;28283;55.426;37.756;2023-12-20T02:24:24;0.70;;;0.52;;
42670;SDS011;28283;55.426;37.756;2023-12-20T02:29:25;2.00;;;1.80;;
42670;SDS011;28283;55.426;37.756;2023-12-20T02:34:26;1.58;;;1.48;;
42670;SDS011;28283;55.426;37.756;2023-12-20T02:39:27;2.85;;;2.00;;
42670;SDS011;28283;55.426;37.756;2023-12-20T02:44:28;1.80;;;1.63;;
42670;SDS011;28283;55.426;37.756;2023-12-20T02:49:28;0.50;;;0.50;;
42670;SDS011;28283;55.426;37.756;2023-12-20T02:54:29;1.50;;;1.35;;
42670;SDS011;28283;55.426;37.756;2023-12-20T02:59:30;2.93;;;2.07;;
42670;SDS011;28283;55.426;37.756;2023-12-20T03:04:30;5.40;;;2.00;;
42670;SDS011;28283;55.426;37.756;2023-12-20T03:09:31;2.67;;;1.45;;
42670;SDS011;28283;55.426;37.756;2023-12-20T03:14:32;2.85;;;1.42;;
42670;SDS011;28283;55.426;37.756;2023-12-20T03:19:33;0.60;;;0.60;;
42670;SDS011;28283;55.426;37.756;2023-12-20T03:24:33;0.93;;;0.93;;
42670;SDS011;28283;55.426;37.756;2023-12-20T03:29:34;1.07;;;0.93;;
42670;SDS011;28283;55.426;37.756;2023-12-20T03:34:34;1.23;;;1.13;;
42670;SDS011;28283;55.426;37.756;2023-12-20T03:39:35;1.67;;;0.70;;
42670;SDS011;28283;55.426;37.756;2023-12-20T03:44:38;1.87;;;1.73;;
42670;SDS011;28283;55.426;37.756;2023-12-20T03:49:40;1.90;;;1.80;;
42670;SDS011;28283;55.426;37.756;2023-12-20T03:54:40;2.33;;;1.90;;
42670;SDS011;28283;55.426;37.756;2023-12-20T03:59:44;1.23;;;1.13;;
42670;SDS011;28283;55.426;37.756;2023-12-20T04:04:44;2.15;;;1.70;;
42670;SDS011;28283;55.426;37.756;2023-12-20T04:09:45;2.88;;;2.63;;
42670;SDS011;28283;55.426;37.756;2023-12-20T04:14:49;1.23;;;1.13;;
42670;SDS011;28283;55.426;37.756;2023-12-20T04:19:50;3.17;;;1.65;;
42670;SDS011;28283;55.426;37.756;2023-12-20T04:24:52;2.58;;;1.95;;
42670;SDS011;28283;55.426;37.756;2023-12-20T04:29:52;1.50;;;1.40;;
42670;SDS011;28283;55.426;37.756;2023-12-20T04:34:53;0.70;;;0.70;;
42670;SDS011;28283;55.426;37.756;2023-12-20T04:39:54;2.80;;;1.23;;
42670;SDS011;28283;55.426;37.756;2023-12-20T04:44:54;1.27;;;1.10;;
42670;SDS011;28283;55.426;37.756;2023-12-20T04:49:55;1.52;;;1.33;;
42670;SDS011;28283;55.426;37.756;2023-12-20T04:54:56;0.77;;;0.77;;
42670;SDS011;28283;55.426;37.756;2023-12-20T04:59:57;1.85;;;1.02;;
42670;SDS011;28283;55.426;37.756;2023-12-20T05:04:57;1.50;;;0.67;;
42670;SDS011;28283;55.426;37.756;2023-12-20T05:09:58;2.33;;;2.22;;
42670;SDS011;28283;55.426;37.756;2023-12-20T05:14:59;2.38;;;1.67;;
42670;SDS011;28283;55.426;37.756;2023-12-20T05:20:00;1.27;;;0.90;;
42670;SDS011;28283;55.426;37.756;2023-12-20T05:25:01;0.77;;;0.70;;
42670;SDS011;28283;55.426;37.756;2023-12-20T05:30:01;1.58;;;1.08;;
42670;SDS011;28283;55.426;37.756;2023-12-20T05:35:05;1.02;;;0.93;;
42670;SDS011;28283;55.426;37.756;2023-12-20T05:40:06;1.83;;;1.33;;
42670;SDS011;28283;55.426;37.756;2023-12-20T05:45:10;2.60;;;0.88;;
42670;SDS011;28283;55.426;37.756;2023-12-20T05:50:11;2.03;;;1.20;;
42670;SDS011;28283;55.426;37.756;2023-12-20T05:55:11;2.00;;;1.08;;
42670;SDS011;28283;55.426;37.756;2023-12-20T06:00:14;0.57;;;0.40;;
42670;SDS011;28283;55.426;37.756;2023-12-20T06:05:15;1.92;;;0.60;;
42670;SDS011;28283;55.426;37.756;2023-12-20T06:10:16;1.08;;;0.70;;
42670;SDS011;28283;55.426;37.756;2023-12-20T06:15:17;1.15;;;0.40;;
42670;SDS011;28283;55.426;37.756;2023-12-20T06:20:18;1.33;;;0.93;;
42670;SDS011;28283;55.426;37.756;2023-12-20T06:25:18;2.40;;;1.73;;
42670;SDS011;28283;55.426;37.756;2023-12-20T06:30:19;1.07;;;0.60;;
42670;SDS011;28283;55.426;37.756;2023-12-20T06:35:19;0.70;;;0.33;;
42670;SDS011;28283;55.426;37.756;2023-12-20T06:40:20;0.95;;;0.60;;
42670;SDS011;28283;55.426;37.756;2023-12-20T06:45:21;0.40;;;0.40;;
42670;SDS011;28283;55.426;37.756;2023-12-20T06:50:21;0.73;;;0.40;;
42670;SDS011;28283;55.426;37.756;2023-12-20T06:55:22;2.47;;;1.20;;
42670;SDS011;28283;55.426;37.756;2023-12-20T07:00:23;1.50;;;0.85;;
42670;SDS011;28283;55.426;37.756;2023-12-20T07:05:24;1.92;;;0.93;;
42670;SDS011;28283;55.426;37.756;2023-12-20T07:10:24;1.30;;;1.20;;
42670;SDS011;28283;55.426;37.756;2023-12-20T07:15:25;2.43;;;1.03;;
42670;SDS011;28283;55.426;37.756;2023-12-20T07:20:27;1.52;;;0.85;;
42670;SDS011;28283;55.426;37.756;2023-12-20T07:30:28;1.42;;;1.02;;
42670;SDS011;28283;55.426;37.756;2023-12-20T07:35:29;1.70;;;1.60;;
42670;SDS011;28283;55.426;37.756;2023-12-20T07:40:29;4.63;;;1.50;;
42670;SDS011;28283;55.426;37.756;2023-12-20T07:45:30;2.70;;;1.60;;
42670;SDS011;28283;55.426;37.756;2023-12-20T07:50:34;2.03;;;1.40;;
42670;SDS011;28283;55.426;37.756;2023-12-20T07:55:38;1.88;;;1.60;;
42670;SDS011;28283;55.426;37.756;2023-12-20T08:05:40;6.95;;;2.97;;
42670;SDS011;28283;55.426;37.756;2023-12-20T08:10:40;2.38;;;2.20;;
42670;SDS011;28283;55.426;37.756;2023-12-20T08:15:41;1.23;;;1.13;;
42670;SDS011;28283;55.426;37.756;2023-12-20T08:20:42;1.95;;;1.08;;
42670;SDS011;28283;55.426;37.756;2023-12-20T08:25:43;2.15;;;1.95;;
42670;SDS011;28283;55.426;37.756;2023-12-20T08:30:43;2.80;;;1.40;;
42670;SDS011;28283;55.426;37.756;2023-12-20T08:40:45;2.17;;;1.00;;
42670;SDS011;28283;55.426;37.756;2023-12-20T08:45:46;4.07;;;2.77;;
42670;SDS011;28283;55.426;37.756;2023-12-20T08:55:50;3.28;;;1.90;;
42670;SDS011;28283;55.426;37.756;2023-12-20T09:00:50;1.50;;;1.40;;
42670;SDS011;28283;55.426;37.756;2023-12-20T09:05:51;1.10;;;1.00;;
42670;SDS011;28283;55.426;37.756;2023-12-20T09:10:52;1.95;;;1.48;;
42670;SDS011;28283;55.426;37.756;2023-12-20T09:15:53;4.00;;;1.20;;
42670;SDS011;28283;55.426;37.756;2023-12-20T09:20:55;1.45;;;1.05;;
42670;SDS011;28283;55.426;37.756;2023-12-20T09:25:56;0.80;;;0.80;;
42670;SDS011;28283;55.426;37.756;2023-12-20T09:30:56;1.30;;;1.20;;
42670;SDS011;28283;55.426;37.756;2023-12-20T09:35:58;2.00;;;0.95;;
42670;SDS011;28283;55.426;37.756;2023-12-20T09:46:01;2.10;;;1.58;;
42670;SDS011;28283;55.426;37.756;2023-12-20T09:51:05;1.65;;;1.15;;
42670;SDS011;28283;55.426;37.756;2023-12-20T10:01:07;1.85;;;0.95;;
42670;SDS011;28283;55.426;37.756;2023-12-20T10:06:08;1.27;;;1.17;;
42670;SDS011;28283;55.426;37.756;2023-12-20T10:11:09;0.80;;;0.63;;
42670;SDS011;28283;55.426;37.756;2023-12-20T10:16:10;2.10;;;1.55;;
42670;SDS011;28283;55.426;37.756;2023-12-20T10:21:10;0.80;;;0.77;;
42670;SDS011;28283;55.426;37.756;2023-12-20T10:31:41;1.10;;;1.00;;
42670;SDS011;28283;55.426;37.756;2023-12-20T10:36:43;1.73;;;1.15;;
42670;SDS011;28283;55.426;37.756;2023-12-20T10:41:44;1.30;;;1.20;;
42670;SDS011;28283;55.426;37.756;2023-12-20T10:46:46;2.15;;;1.20;;
42670;SDS011;28283;55.426;37.756;2023-12-20T10:51:51;1.30;;;1.20;;
42670;SDS011;28283;55.426;37.756;2023-12-20T10:56:54;1.15;;;1.05;;
42670;SDS011;28283;55.426;37.756;2023-12-20T11:01:58;3.03;;;1.50;;
42670;SDS011;28283;55.426;37.756;2023-12-20T11:07:16;1.90;;;0.93;;
42670;SDS011;28283;55.426;37.756;2023-12-20T11:12:25;0.80;;;0.80;;
42670;SDS011;28283;55.426;37.756;2023-12-20T11:17:36;3.35;;;1.02;;
42670;SDS011;28283;55.426;37.756;2023-12-20T11:22:39;3.10;;;1.80;;
42670;SDS011;28283;55.426;37.756;2023-12-20T11:28:09;1.15;;;1.05;;
42670;SDS011;28283;55.426;37.756;2023-12-20T11:33:11;1.50;;;1.40;;
42670;SDS011;28283;55.426;37.756;2023-12-20T11:38:13;3.95;;;1.70;;
42670;SDS011;28283;55.426;37.756;2023-12-20T11:43:29;2.55;;;2.28;;
42670;SDS011;28283;55.426;37.756;2023-12-20T11:48:30;3.40;;;1.92;;
42670;SDS011;28283;55.426;37.756;2023-12-20T11:58:33;2.45;;;1.95;;
42670;SDS011;28283;55.426;37.756;2023-12-20T12:03:35;0.70;;;0.70;;
42670;SDS011;28283;55.426;37.756;2023-12-20T12:08:36;1.85;;;0.95;;
42670;SDS011;28283;55.426;37.756;2023-12-20T12:13:38;1.27;;;1.17;;
42670;SDS011;28283;55.426;37.756;2023-12-20T12:23:42;1.58;;;1.48;;
42670;SDS011;28283;55.426;37.756;2023-12-20T12:28:42;2.60;;;1.07;;
42670;SDS011;28283;55.426;37.756;2023-12-20T12:33:43;1.52;;;0.93;;
42670;SDS011;28283;55.426;37.756;2023-12-20T12:38:44;2.38;;;0.82;;
42670;SDS011;28283;55.426;37.756;2023-12-20T12:43:45;1.20;;;1.10;;
42670;SDS011;28283;55.426;37.756;2023-12-20T12:48:46;1.77;;;1.30;;
42670;SDS011;28283;55.426;37.756;2023-12-20T12:53:46;1.33;;;1.23;;
42670;SDS011;28283;55.426;37.756;2023-12-20T12:58:47;1.88;;;1.77;;
42670;SDS011;28283;55.426;37.756;2023-12-20T13:03:48;1.70;;;1.60;;
42670;SDS011;28283;55.426;37.756;2023-12-20T13:08:49;1.60;;;1.35;;
42670;SDS011;28283;55.426;37.756;2023-12-20T13:13:50;3.38;;;1.48;;
42670;SDS011;28283;55.426;37.756;2023-12-20T13:18:51;1.90;;;1.50;;
42670;SDS011;28283;55.426;37.756;2023-12-20T13:23:52;3.30;;;1.20;;
42670;SDS011;28283;55.426;37.756;2023-12-20T13:28:54;1.20;;;0.77;;
42670;SDS011;28283;55.426;37.756;2023-12-20T13:33:55;2.33;;;1.13;;
42670;SDS011;28283;55.426;37.756;2023-12-20T13:38:55;2.83;;;1.33;;
42670;SDS011;28283;55.426;37.756;2023-12-20T13:43:56;2.28;;;1.60;;
42670;SDS011;28283;55.426;37.756;2023-12-20T13:48:57;1.70;;;1.60;;
42670;SDS011;28283;55.426;37.756;2023-12-20T13:53:58;3.33;;;1.20;;
42670;SDS011;28283;55.426;37.756;2023-12-20T14:03:59;2.25;;;1.75;;
42670;SDS011;28283;55.426;37.756;2023-12-20T14:14:02;1.50;;;0.70;;
42670;SDS011;28283;55.426;37.756;2023-12-20T14:24:04;0.70;;;0.70;;
42670;SDS011;28283;55.426;37.756;2023-12-20T14:29:05;1.13;;;0.93;;
42670;SDS011;28283;55.426;37.756;2023-12-20T14:34:07;0.60;;;0.60;;
42670;SDS011;28283;55.426;37.756;2023-12-20T14:39:08;1.75;;;1.65;;
42670;SDS011;28283;55.426;37.756;2023-12-20T14:44:09;3.47;;;1.30;;
42670;SDS011;28283;55.426;37.756;2023-12-20T14:49:09;0.40;;;0.40;;
42670;SDS011;28283;55.426;37.756;2023-12-20T14:54:10;2.30;;;0.90;;
42670;SDS011;28283;55.426;37.756;2023-12-20T14:59:11;1.38;;;1.27;;
42670;SDS011;28283;55.426;37.756;2023-12-20T15:04:11;1.37;;;1.27;;
42670;SDS011;28283;55.426;37.756;2023-12-20T15:09:13;1.95;;;1.13;;
42670;SDS011;28283;55.426;37.756;2023-12-20T15:14:14;1.70;;;1.60;;
42670;SDS011;28283;55.426;37.756;2023-12-20T15:19:19;1.50;;;1.20;;
42670;SDS011;28283;55.426;37.756;2023-12-20T15:24:20;2.30;;;1.85;;
42670;SDS011;28283;55.426;37.756;2023-12-20T15:29:28;1.50;;;1.40;;
42670;SDS011;28283;55.426;37.756;2023-12-20T15:34:29;1.67;;;1.48;;
42670;SDS011;28283;55.426;37.756;2023-12-20T15:39:30;2.50;;;1.40;;
42670;SDS011;28283;55.426;37.756;2023-12-20T15:44:30;1.57;;;1.37;;
42670;SDS011;28283;55.426;37.756;2023-12-20T15:49:31;2.40;;;1.60;;
42670;SDS011;28283;55.426;37.756;2023-12-20T15:54:32;2.42;;;1.75;;
42670;SDS011;28283;55.426;37.756;2023-12-20T15:59:33;2.58;;;2.00;;
42670;SDS011;28283;55.426;37.756;2023-12-20T16:04:34;0.85;;;0.85;;
42670;SDS011;28283;55.426;37.756;2023-12-20T16:09:34;2.88;;;2.08;;
42670;SDS011;28283;55.426;37.756;2023-12-20T16:14:35;2.30;;;1.57;;
42670;SDS011;28283;55.426;37.756;2023-12-20T16:19:36;1.73;;;1.43;;
42670;SDS011;28283;55.426;37.756;2023-12-20T16:24:36;2.05;;;1.95;;
42670;SDS011;28283;55.426;37.756;2023-12-20T16:29:37;1.73;;;1.63;;
42670;SDS011;28283;55.426;37.756;2023-12-20T16:34:38;2.83;;;1.77;;
42670;SDS011;28283;55.426;37.756;2023-12-20T16:39:38;2.00;;;1.90;;
42670;SDS011;28283;55.426;37.756;2023-12-20T16:44:39;2.60;;;1.55;;
42670;SDS011;28283;55.426;37.756;2023-12-20T16:49:40;1.70;;;1.37;;
42670;SDS011;28283;55.426;37.756;2023-12-20T16:54:40;2.58;;;2.38;;
42670;SDS011;28283;55.426;37.756;2023-12-20T16:59:42;2.00;;;1.80;;
42670;SDS011;28283;55.426;37.756;2023-12-20T17:04:43;2.92;;;2.20;;
42670;SDS011;28283;55.426;37.756;2023-12-20T17:09:44;2.33;;;2.10;;
42670;SDS011;28283;55.426;37.756;2023-12-20T17:14:47;3.20;;;2.00;;
42670;SDS011;28283;55.426;37.756;2023-12-20T17:19:48;2.10;;;2.00;;
42670;SDS011;28283;55.426;37.756;2023-12-20T17:24:48;3.05;;;2.20;;
42670;SDS011;28283;55.426;37.756;2023-12-20T17:29:49;3.03;;;2.73;;
42670;SDS011;28283;55.426;37.756;2023-12-20T17:34:50;3.53;;;3.22;;
42670;SDS011;28283;55.426;37.756;2023-12-20T17:39:51;4.65;;;3.63;;
42670;SDS011;28283;55.426;37.756;2023-12-20T17:44:51;4.23;;;3.83;;
42670;SDS011;28283;55.426;37.756;2023-12-20T17:49:52;4.63;;;4.23;;
42670;SDS011;28283;55.426;37.756;2023-12-20T17:54:53;5.43;;;4.50;;
42670;SDS011;28283;55.426;37.756;2023-12-20T17:59:53;5.43;;;4.93;;
42670;SDS011;28283;55.426;37.756;2023-12-20T18:04:54;5.33;;;4.70;;
42670;SDS011;28283;55.426;37.756;2023-12-20T18:09:55;4.70;;;3.97;;
42670;SDS011;28283;55.426;37.756;2023-12-20T18:14:55;6.70;;;3.85;;
42670;SDS011;28283;55.426;37.756;2023-12-20T18:24:59;4.00;;;3.65;;
42670;SDS011;28283;55.426;37.756;2023-12-20T18:30:00;4.82;;;3.63;;
42670;SDS011;28283;55.426;37.756;2023-12-20T18:35:06;4.28;;;3.08;;
42670;SDS011;28283;55.426;37.756;2023-12-20T18:40:07;3.22;;;2.92;;
42670;SDS011;28283;55.426;37.756;2023-12-20T18:50:09;3.47;;;2.80;;
42670;SDS011;28283;55.426;37.756;2023-12-20T19:00:11;4.95;;;3.50;;
42670;SDS011;28283;55.426;37.756;2023-12-20T19:05:12;3.38;;;3.08;;
42670;SDS011;28283;55.426;37.756;2023-12-20T19:10:13;3.55;;;3.20;;
42670;SDS011;28283;55.426;37.756;2023-12-20T19:15:13;5.32;;;3.10;;
42670;SDS011;28283;55.426;37.756;2023-12-20T19:20:14;3.78;;;3.40;;
42670;SDS011;28283;55.426;37.756;2023-12-20T19:25:15;4.25;;;2.70;;
42670;SDS011;28283;55.426;37.756;2023-12-20T19:30:16;2.70;;;2.50;;
42670;SDS011;28283;55.426;37.756;2023-12-20T19:35:16;3.28;;;2.70;;
42670;SDS011;28283;55.426;37.756;2023-12-20T19:40:17;3.67;;;3.28;;
42670;SDS011;28283;55.426;37.756;2023-12-20T19:45:18;5.20;;;4.07;;
42670;SDS011;28283;55.426;37.756;2023-12-20T19:50:19;4.35;;;3.95;;
42670;SDS011;28283;55.426;37.756;2023-12-20T19:55:19;4.10;;;3.70;;
42670;SDS011;28283;55.426;37.756;2023-12-20T20:00:22;5.40;;;4.18;;
42670;SDS011;28283;55.426;37.756;2023-12-20T20:05:23;5.35;;;4.40;;
42670;SDS011;28283;55.426;37.756;2023-12-20T20:10:25;4.57;;;4.00;;
42670;SDS011;28283;55.426;37.756;2023-12-20T20:15:26;4.75;;;3.88;;
42670;SDS011;28283;55.426;37.756;2023-12-20T20:20:26;3.78;;;3.20;;
42670;SDS011;28283;55.426;37.756;2023-12-20T20:25:27;4.68;;;4.05;;
42670;SDS011;28283;55.426;37.756;2023-12-20T20:30:28;5.23;;;3.83;;
42670;SDS011;28283;55.426;37.756;2023-12-20T20:35:28;4.47;;;3.85;;
42670;SDS011;28283;55.426;37.756;2023-12-20T20:40:29;4.53;;;4.13;;
42670;SDS011;28283;55.426;37.756;2023-12-20T20:45:30;4.28;;;3.90;;
42670;SDS011;28283;55.426;37.756;2023-12-20T20:50:30;4.68;;;4.28;;
42670;SDS011;28283;55.426;37.756;2023-12-20T20:55:31;5.10;;;4.17;;
42670;SDS011;28283;55.426;37.756;2023-12-20T21:00:32;5.38;;;4.53;;
42670;SDS011;28283;55.426;37.756;2023-12-20T21:05:32;4.63;;;4.23;;
42670;SDS011;28283;55.426;37.756;2023-12-20T21:10:33;5.60;;;4.73;;
42670;SDS011;28283;55.426;37.756;2023-12-20T21:15:34;5.88;;;4.72;;
42670;SDS011;28283;55.426;37.756;2023-12-20T21:20:34;5.43;;;4.93;;
42670;SDS011;28283;55.426;37.756;2023-12-20T21:25:35;6.35;;;4.70;;
42670;SDS011;28283;55.426;37.756;2023-12-20T21:30:37;5.50;;;5.00;;
42670;SDS011;28283;55.426;37.756;2023-12-20T21:35:38;5.65;;;5.15;;
42670;SDS011;28283;55.426;37.756;2023-12-20T21:40:39;5.97;;;5.43;;
42670;SDS011;28283;55.426;37.756;2023-12-20T21:45:39;6.43;;;5.55;;
42670;SDS011;28283;55.426;37.756;2023-12-20T21:50:42;5.75;;;5.25;;
42670;SDS011;28283;55.426;37.756;2023-12-20T21:55:43;6.85;;;4.97;;
42670;SDS011;28283;55.426;37.756;2023-12-20T22:00:43;6.10;;;5.37;;
42670;SDS011;28283;55.426;37.756;2023-12-20T22:05:44;6.07;;;5.33;;
42670;SDS011;28283;55.426;37.756;2023-12-20T22:10:45;4.83;;;4.43;;
42670;SDS011;28283;55.426;37.756;2023-12-20T22:15:45;6.30;;;5.70;;
42670;SDS011;28283;55.426;37.756;2023-12-20T22:20:46;5.53;;;5.03;;
42670;SDS011;28283;55.426;37.756;2023-12-20T22:25:47;6.20;;;5.57;;
42670;SDS011;28283;55.426;37.756;2023-12-20T22:30:47;6.88;;;5.85;;
42670;SDS011;28283;55.426;37.756;2023-12-20T22:35:48;5.27;;;4.77;;
42670;SDS011;28283;55.426;37.756;2023-12-20T22:40:48;5.17;;;4.67;;
42670;SDS011;28283;55.426;37.756;2023-12-20T22:45:49;5.45;;;4.95;;
42670;SDS011;28283;55.426;37.756;2023-12-20T22:50:50;4.97;;;4.07;;
42670;SDS011;28283;55.426;37.756;2023-12-20T22:55:50;4.77;;;3.97;;
42670;SDS011;28283;55.426;37.756;2023-12-20T23:00:54;4.25;;;3.85;;
42670;SDS011;28283;55.426;37.756;2023-12-20T23:05:55;3.85;;;3.53;;
42670;SDS011;28283;55.426;37.756;2023-12-20T23:10:55;2.87;;;2.20;;
42670;SDS011;28283;55.426;37.756;2023-12-20T23:15:56;2.95;;;2.58;;
42670;SDS011;28283;55.426;37.756;2023-12-20T23:20:57;1.90;;;1.80;;
42670;SDS011;28283;55.426;37.756;2023-12-20T23:25:58;1.85;;;1.75;;
42670;SDS011;28283;55.426;37.756;2023-12-20T23:30:59;1.50;;;1.40;;
42670;SDS011;28283;55.426;37.756;2023-12-20T23:35:59;1.65;;;1.55;;
42670;SDS011;28283;55.426;37.756;2023-12-20T23:41:00;1.43;;;1.33;;
42670;SDS011;28283;55.426;37.756;2023-12-20T23:46:00;1.55;;;1.45;;
42670;SDS011;28283;55.426;37.756;2023-12-20T23:51:05;1.77;;;1.63;;
42670;SDS011;28283;55.426;37.756;2023-12-20T23:56:06;1.20;;;1.10;;
